Time;durP1;ratioP1;P1;durP2;ratioP2;P2;SDS_P1;SDS_P2;PMS_P1;PMS_P2;Temp;Humidity;BMP_temperature;BMP_pressure;BME280_temperature;BME280_humidity;BME280_pressure;Samples;Min_cycle;Max_cycle;Signal;HPM_P1;HPM_P2
2023/10/11 03:56:26;;;;;;;;;;;;;;;;;;5734182;22;20016;-72
2023/10/11 03:58:53;;;;;;;;;;;;;;;;;;5013877;28;19925;-72
2023/10/11 04:01:28;;;;;;;;;;;;;;;;;;5014127;28;20382;-71
2023/10/11 04:03:56;;;;;;;;;;;;;;;;;;5014554;28;19976;-72
2023/10/11 04:06:23;;;;;;;;;;;;;;;;;;5023262;28;19925;-72
2023/10/11 04:08:55;;;;;;;;;;;;;;;;;;5034219;28;20409;-72
2023/10/11 04:11:30;;;;;;;;;;;;;;;;;;5034169;28;19975;-72
2023/10/11 04:13:57;;;;;;;;;;;;;;;;;;5033909;28;20015;-73
2023/10/11 04:16:28;;;;;;;;;;;;;;;;;;5033362;28;20416;-73
2023/10/11 04:18:55;;;;;;;;;;;;;;;;;;5033474;28;20321;-71
2023/10/11 04:21:39;;;;;;;;;;;;;;;;;;5033713;28;19925;-71
2023/10/11 04:24:07;;;;;;;;;;;;;;;;;;5033446;28;20028;-72
2023/10/11 04:26:36;;;;;;;;;;;;;;;;;;5034052;28;19925;-72
2023/10/11 04:29:17;;;;;;;;;;;;;;;;;;5033669;28;19948;-72
2023/10/11 04:31:55;;;;;;;;;;;;;;;;;;5033788;28;19925;-72
2023/10/11 04:34:23;;;;;;;;;;;;;;;;;;5033640;28;19925;-72
2023/10/11 04:36:51;;;;;;;;;;;;;;;;;;5033666;28;19925;-72
2023/10/11 04:39:27;;;;;;;;;;;;;;;;;;5033522;28;19925;-72
2023/10/11 04:41:56;;;;;;;;;;;;;;;;;;5033585;28;19932;-72
2023/10/11 04:44:23;;;;;;;;;;;;;;;;;;5033446;28;19925;-72
2023/10/11 04:46:57;;;;;;;;;;;;;;;;;;5033530;28;19925;-72
2023/10/11 04:49:25;;;;;;;;;;;;;;;;;;5033629;28;20015;-72
2023/10/11 04:51:55;;;;;;;;;;;;;;;;;;5033480;28;19932;-72
2023/10/11 04:54:35;;;;;;;;;;;;;;;;;;5033453;28;19990;-72
2023/10/11 04:57:06;;;;;;;;;;;;;;;;;;5033271;28;19929;-72
2023/10/11 04:59:36;;;;;;;;;;;;;;;;;;5034143;28;19939;-74
2023/10/11 05:02:07;;;;;;;;;;;;;;;;;;5033386;28;20016;-74
2023/10/11 05:04:38;;;;;;;;;;;;;;;;;;5033418;28;20019;-72
2023/10/11 05:07:09;;;;;;;;;;;;;;;;;;5033294;28;19925;-74
2023/10/11 05:09:39;;;;;;;;;;;;;;;;;;5036921;28;19959;-72
2023/10/11 05:12:09;;;;;;;;;;;;;;;;;;5036938;28;19932;-70
2023/10/11 05:14:39;;;;;;;;;;;;;;;;;;5036890;28;19984;-70
2023/10/11 05:17:31;;;;;;;;;;;;;;;;;;5036714;28;19925;-69
2023/10/11 05:20:20;;;;;;;;;;;;;;;;;;5036746;28;19971;-72
2023/10/11 05:22:52;;;;;;;;;;;;;;;;;;5036489;28;19925;-71
2023/10/11 05:28:26;;;;;;;;;;;;;;;;;;5036230;28;19944;-71
2023/10/11 05:31:06;;;;;;;;;;;;;;;;;;5036273;28;20337;-71
2023/10/11 05:33:45;;;;;;;;;;;;;;;;;;5036500;28;19925;-71
2023/10/11 05:36:14;;;;;;;;;;;;;;;;;;5036677;28;19925;-71
2023/10/11 05:52:25;;;;;;;;;;;;;;;;;;5035971;28;19955;-71
2023/10/11 05:54:53;;;;;;;;;;;;;;;;;;5036063;28;20011;-71
2023/10/11 05:57:23;;;;;;;;;;;;;;;;;;5035775;28;19975;-71
2023/10/11 05:59:50;;;;;;;;;;;;;;;;;;5036116;28;20020;-71
2023/10/11 06:02:18;;;;;;;;;;;;;;;;;;5036067;28;20386;-71
2023/10/11 06:04:45;;;;;;;;;;;;;;;;;;5036327;28;19925;-71
2023/10/11 06:07:13;;;;;;;;;;;;;;;;;;5036238;28;19927;-71
2023/10/11 06:09:43;;;;;;;;;;;;;;;;;;5035909;28;19925;-70
2023/10/11 06:12:22;;;;;;;;;;;;;;;;;;5035816;28;19931;-71
2023/10/11 06:14:50;;;;;;;;;;;;;;;;;;5035713;28;19929;-71
2023/10/11 06:17:21;;;;;;;;;;;;;;;;;;5035314;28;19979;-71
2023/10/11 06:19:53;;;;;;;;;;;;;;;;;;5035254;28;19933;-71
2023/10/11 06:22:21;;;;;;;;;;;;;;;;;;5036428;28;20019;-71
2023/10/11 06:24:48;;;;;;;;;;;;;;;;;;5035084;28;20354;-71
2023/10/11 06:30:09;;;;;;;;;;;;;;;;;;5034951;28;19944;-71
2023/10/11 06:32:36;;;;;;;;;;;;;;;;;;5035370;28;19931;-71
2023/10/11 06:35:05;;;;;;;;;;;;;;;;;;5035064;28;20298;-71
2023/10/11 06:37:34;;;;;;;;;;;;;;;;;;5035270;28;19932;-71
2023/10/11 06:40:14;;;;;;;;;;;;;;;;;;5035093;28;20417;-71
2023/10/11 06:42:41;;;;;;;;;;;;;;;;;;5035191;28;19928;-71
2023/10/11 06:45:16;;;;;;;;;;;;;;;;;;5035045;28;19925;-71
2023/10/11 06:47:47;;;;;;;;;;;;;;;;;;5035022;28;19976;-71
2023/10/11 06:50:14;;;;;;;;;;;;;;;;;;5034968;28;19948;-71
2023/10/11 06:52:43;;;;;;;;;;;;;;;;;;5034953;28;19929;-71
2023/10/11 06:55:16;;;;;;;;;;;;;;;;;;5034877;28;19932;-71
2023/10/11 06:57:45;;;;;;;;;;;;;;;;;;5034756;28;20440;-71
2023/10/11 07:00:21;;;;;;;;;;;;;;;;;;5034805;28;19970;-71
2023/10/11 07:02:48;;;;;;;;;;;;;;;;;;5034790;28;19933;-71
2023/10/11 07:05:17;;;;;;;;;;;;;;;;;;5034775;28;20016;-71
2023/10/11 07:07:47;;;;;;;;;;;;;;;;;;5034542;28;20008;-71
2023/10/11 07:10:28;;;;;;;;;;;;;;;;;;5035226;28;19979;-71
2023/10/11 07:13:03;;;;;;;;;;;;;;;;;;5034673;28;19932;-71
2023/10/11 07:15:31;;;;;;;;;;;;;;;;;;5034433;28;19980;-71
2023/10/11 07:17:58;;;;;;;;;;;;;;;;;;5034519;28;19929;-71
2023/10/11 07:20:47;;;;;;;;;;;;;;;;;;5034955;28;19925;-71
2023/10/11 07:23:19;;;;;;;;;;;;;;;;;;5034905;28;19925;-72
2023/10/11 07:25:48;;;;;;;;;;;;;;;;;;5035302;28;19925;-71
2023/10/11 07:28:17;;;;;;;;;;;;;;;;;;5037731;28;20378;-71
2023/10/11 07:30:47;;;;;;;;;;;;;;;;;;5036915;28;19975;-71
2023/10/11 07:33:13;;;;;;;;;;;;;;;;;;5036814;28;19925;-71
2023/10/11 07:35:40;;;;;;;;;;;;;;;;;;5034341;28;19925;-71
2023/10/11 07:38:08;;;;;;;;;;;;;;;;;;5034397;28;19929;-71
2023/10/11 07:40:45;;;;;;;;;;;;;;;;;;5034853;28;19983;-71
2023/10/11 07:43:16;;;;;;;;;;;;;;;;;;5034216;28;19925;-71
2023/10/11 07:45:47;;;;;;;;;;;;;;;;;;5034099;28;19925;-71
2023/10/11 07:48:14;;;;;;;;;;;;;;;;;;5034112;28;20259;-71
2023/10/11 07:50:46;;;;;;;;;;;;;;;;;;5033418;28;21494;-71
2023/10/11 07:53:13;;;;;;;;;;;;;;;;;;5034009;28;19932;-71
2023/10/11 07:55:40;;;;;;;;;;;;;;;;;;5033840;28;19925;-71
2023/10/11 07:58:08;;;;;;;;;;;;;;;;;;5033643;28;19929;-71
2023/10/11 08:00:41;;;;;;;;;;;;;;;;;;5033572;28;20341;-71
2023/10/11 08:03:09;;;;;;;;;;;;;;;;;;5034180;28;19929;-72
2023/10/11 08:05:36;;;;;;;;;;;;;;;;;;5034349;28;19925;-71
2023/10/11 08:08:05;;;;;;;;;;;;;;;;;;5033769;28;19941;-71
2023/10/11 08:10:34;;;;;;;;;;;;;;;;;;5034028;28;20027;-71
2023/10/11 08:13:02;;;;;;;;;;;;;;;;;;5033713;28;20366;-71
2023/10/11 08:15:28;;;;;;;;;;;;;;;;;;5033766;28;20039;-71
2023/10/11 08:17:55;;;;;;;;;;;;;;;;;;5034045;28;20294;-71
2023/10/11 08:20:28;;;;;;;;;;;;;;;;;;5034206;28;19925;-72
2023/10/11 08:22:55;;;;;;;;;;;;;;;;;;5033786;28;19926;-71
2023/10/11 08:25:28;;;;;;;;;;;;;;;;;;5033945;28;19926;-71
2023/10/11 08:28:12;;;;;;;;;;;;;;;;;;5033500;28;19929;-71
2023/10/11 08:30:39;;;;;;;;;;;;;;;;;;5034324;28;19948;-71
2023/10/11 08:33:06;;;;;;;;;;;;;;;;;;5033986;28;19932;-72
2023/10/11 08:35:33;;;;;;;;;;;;;;;;;;5033616;28;19925;-71
2023/10/11 08:38:04;;;;;;;;;;;;;;;;;;5033705;28;20274;-71
2023/10/11 08:40:35;;;;;;;;;;;;;;;;;;5035077;28;19960;-71
2023/10/11 08:43:02;;;;;;;;;;;;;;;;;;5036232;28;19932;-70
2023/10/11 08:45:29;;;;;;;;;;;;;;;;;;5037209;28;20398;-70
2023/10/11 08:47:57;;;;;;;;;;;;;;;;;;5037357;28;19932;-70
2023/10/11 08:50:26;;;;;;;;;;;;;;;;;;5036997;28;19925;-70
2023/10/11 08:52:53;;;;;;;;;;;;;;;;;;5036944;28;20374;-70
2023/10/11 08:55:24;;;;;;;;;;;;;;;;;;5036833;28;20375;-70
2023/10/11 08:57:53;;;;;;;;;;;;;;;;;;5036864;28;20043;-71
2023/10/11 09:00:29;;;;;;;;;;;;;;;;;;5037115;28;19925;-71
2023/10/11 09:02:56;;;;;;;;;;;;;;;;;;5037110;28;20295;-71
2023/10/11 09:05:29;;;;;;;;;;;;;;;;;;5036954;28;19925;-71
2023/10/11 09:07:56;;;;;;;;;;;;;;;;;;5037138;28;19929;-71
2023/10/11 09:10:24;;;;;;;;;;;;;;;;;;5036703;28;19932;-71
2023/10/11 09:12:56;;;;;;;;;;;;;;;;;;5037036;28;19932;-71
2023/10/11 09:15:22;;;;;;;;;;;;;;;;;;5036915;28;20290;-71
2023/10/11 09:17:50;;;;;;;;;;;;;;;;;;5037158;28;19925;-71
2023/10/11 09:20:23;;;;;;;;;;;;;;;;;;5036826;28;19925;-71
2023/10/11 09:22:52;;;;;;;;;;;;;;;;;;5036887;28;19925;-71
2023/10/11 09:25:23;;;;;;;;;;;;;;;;;;5036712;28;19975;-71
2023/10/11 09:27:50;;;;;;;;;;;;;;;;;;5036988;28;20020;-71
2023/10/11 09:30:20;;;;;;;;;;;;;;;;;;5036482;28;20400;-71
2023/10/11 09:32:49;;;;;;;;;;;;;;;;;;5036710;28;20305;-71
2023/10/11 09:35:16;;;;;;;;;;;;;;;;;;5036694;28;20024;-71
2023/10/11 09:37:46;;;;;;;;;;;;;;;;;;5036630;28;19921;-71
2023/10/11 09:40:16;;;;;;;;;;;;;;;;;;5036709;28;19933;-71
2023/10/11 09:42:43;;;;;;;;;;;;;;;;;;5036207;28;20397;-70
2023/10/11 09:45:16;;;;;;;;;;;;;;;;;;5036469;28;19925;-70
2023/10/11 09:47:43;;;;;;;;;;;;;;;;;;5036442;28;19987;-70
2023/10/11 09:50:14;;;;;;;;;;;;;;;;;;5036849;28;19925;-70
2023/10/11 09:52:45;;;;;;;;;;;;;;;;;;5036269;28;19979;-69
2023/10/11 09:55:17;;;;;;;;;;;;;;;;;;5035331;28;19932;-70
2023/10/11 09:57:50;;;;;;;;;;;;;;;;;;5035895;28;19928;-70
2023/10/11 10:00:17;;;;;;;;;;;;;;;;;;5036119;28;20040;-70
2023/10/11 10:02:46;;;;;;;;;;;;;;;;;;5035596;28;20397;-70
2023/10/11 10:05:13;;;;;;;;;;;;;;;;;;5036138;28;19948;-70
2023/10/11 10:07:44;;;;;;;;;;;;;;;;;;5035906;28;20359;-70
2023/10/11 10:10:11;;;;;;;;;;;;;;;;;;5052798;23;19932;-73
2023/10/11 10:12:40;;;;;;;;;;;;;;;;;;5016019;28;19971;-71
2023/10/11 10:15:12;;;;;;;;;;;;;;;;;;5016158;28;19929;-71
2023/10/11 10:17:38;;;;;;;;;;;;;;;;;;5015915;28;19933;-71
2023/10/11 10:20:06;;;;;;;;;;;;;;;;;;5016263;28;19930;-71
2023/10/11 10:22:33;;;;;;;;;;;;;;;;;;5015592;28;20406;-71
2023/10/11 10:25:00;;;;;;;;;;;;;;;;;;5016061;28;20000;-72
2023/10/11 10:27:32;;;;;;;;;;;;;;;;;;5015827;28;19925;-72
2023/10/11 10:29:59;;;;;;;;;;;;;;;;;;5015781;28;19928;-72
2023/10/11 10:32:26;;;;;;;;;;;;;;;;;;5015947;28;19953;-72
2023/10/11 10:34:54;;;;;;;;;;;;;;;;;;5015724;28;20025;-73
2023/10/11 10:37:21;;;;;;;;;;;;;;;;;;5015894;28;19929;-72
2023/10/11 10:39:48;;;;;;;;;;;;;;;;;;5016135;28;20286;-72
2023/10/11 10:42:15;;;;;;;;;;;;;;;;;;5017734;28;19930;-72
2023/10/11 10:44:43;;;;;;;;;;;;;;;;;;5017261;28;19925;-72
2023/10/11 10:47:10;;;;;;;;;;;;;;;;;;5016573;28;19926;-71
2023/10/11 10:49:37;;;;;;;;;;;;;;;;;;5015882;28;20387;-71
2023/10/11 10:52:03;;;;;;;;;;;;;;;;;;5016227;28;19926;-73
2023/10/11 10:54:32;;;;;;;;;;;;;;;;;;5016542;28;19965;-72
2023/10/11 10:56:58;;;;;;;;;;;;;;;;;;5016164;28;19933;-72
2023/10/11 10:59:26;;;;;;;;;;;;;;;;;;5015993;28;19929;-72
2023/10/11 11:01:53;;;;;;;;;;;;;;;;;;5016020;28;20347;-72
2023/10/11 11:04:20;;;;;;;;;;;;;;;;;;5016575;28;19921;-71
2023/10/11 11:06:46;;;;;;;;;;;;;;;;;;5015045;28;19932;-72
2023/10/11 11:09:14;;;;;;;;;;;;;;;;;;5015518;28;19925;-73
2023/10/11 11:11:40;;;;;;;;;;;;;;;;;;5015714;28;20441;-73
2023/10/11 11:14:08;;;;;;;;;;;;;;;;;;5016002;28;19925;-73
2023/10/11 11:16:38;;;;;;;;;;;;;;;;;;5015745;28;20379;-72
2023/10/11 11:19:08;;;;;;;;;;;;;;;;;;5016353;28;19976;-72
2023/10/11 11:21:44;;;;;;;;;;;;;;;;;;5018499;28;20298;-74
2023/10/11 11:24:14;;;;;;;;;;;;;;;;;;5018611;28;19921;-72
2023/10/11 11:26:40;;;;;;;;;;;;;;;;;;5018195;28;19972;-72
2023/10/11 11:29:16;;;;;;;;;;;;;;;;;;5016910;28;19925;-72
2023/10/11 11:31:43;;;;;;;;;;;;;;;;;;5015976;28;19968;-72
2023/10/11 11:34:11;;;;;;;;;;;;;;;;;;5015238;28;20394;-72
2023/10/11 11:36:40;;;;;;;;;;;;;;;;;;5015948;28;19984;-72
2023/10/11 11:41:52;;;;;;;;;;;;;;;;;;5014982;28;20371;-73
2023/10/11 11:44:20;;;;;;;;;;;;;;;;;;5015977;28;19925;-72
2023/10/11 11:46:48;;;;;;;;;;;;;;;;;;5015269;28;20354;-73
2023/10/11 11:49:15;;;;;;;;;;;;;;;;;;5014973;28;19925;-73
2023/10/11 11:51:42;;;;;;;;;;;;;;;;;;5014217;28;19969;-73
2023/10/11 11:54:09;;;;;;;;;;;;;;;;;;5014026;28;20326;-73
2023/10/11 11:56:36;;;;;;;;;;;;;;;;;;5014196;28;19932;-73
2023/10/11 11:59:02;;;;;;;;;;;;;;;;;;5014255;28;20298;-72
2023/10/11 12:01:29;;;;;;;;;;;;;;;;;;5014161;28;19921;-72
2023/10/11 12:03:56;;;;;;;;;;;;;;;;;;5014306;28;19926;-72
2023/10/11 12:06:22;;;;;;;;;;;;;;;;;;5014416;28;19933;-73
2023/10/11 12:08:49;;;;;;;;;;;;;;;;;;5014301;28;19921;-73
2023/10/11 12:11:15;;;;;;;;;;;;;;;;;;5013724;28;19925;-71
2023/10/11 12:13:42;;;;;;;;;;;;;;;;;;5013899;28;20374;-73
2023/10/11 12:16:10;;;;;;;;;;;;;;;;;;5014123;28;19926;-73
2023/10/11 12:18:37;;;;;;;;;;;;;;;;;;5017780;28;20326;-72
2023/10/11 12:21:10;;;;;;;;;;;;;;;;;;5018066;28;19935;-71
2023/10/11 12:23:37;;;;;;;;;;;;;;;;;;5018206;28;19965;-72
2023/10/11 12:26:04;;;;;;;;;;;;;;;;;;5018230;28;20016;-72
2023/10/11 12:28:37;;;;;;;;;;;;;;;;;;5023523;28;19926;-71
2023/10/11 12:31:04;;;;;;;;;;;;;;;;;;5021091;28;19933;-72
2023/10/11 12:33:32;;;;;;;;;;;;;;;;;;5018496;28;19952;-73
2023/10/11 12:35:59;;;;;;;;;;;;;;;;;;5018126;28;19931;-71
2023/10/11 12:38:26;;;;;;;;;;;;;;;;;;5017650;28;20300;-71
2023/10/11 12:40:53;;;;;;;;;;;;;;;;;;5017687;28;19926;-71
2023/10/11 12:43:22;;;;;;;;;;;;;;;;;;5017668;28;19926;-71
2023/10/11 12:45:49;;;;;;;;;;;;;;;;;;5017888;28;19932;-73
2023/10/11 12:48:16;;;;;;;;;;;;;;;;;;5018064;28;19981;-74
2023/10/11 12:50:43;;;;;;;;;;;;;;;;;;5017877;28;19930;-73
2023/10/11 12:53:11;;;;;;;;;;;;;;;;;;5017527;28;19948;-72
2023/10/11 12:55:38;;;;;;;;;;;;;;;;;;5017581;28;19932;-75
2023/10/11 12:58:06;;;;;;;;;;;;;;;;;;5017671;28;20275;-75
2023/10/11 13:00:37;;;;;;;;;;;;;;;;;;5017698;28;19979;-74
2023/10/11 13:03:15;;;;;;;;;;;;;;;;;;5017793;28;19979;-74
2023/10/11 13:05:43;;;;;;;;;;;;;;;;;;5017636;28;19926;-75
2023/10/11 13:08:11;;;;;;;;;;;;;;;;;;5017717;28;19932;-74
2023/10/11 13:10:39;;;;;;;;;;;;;;;;;;5017375;28;19952;-75
2023/10/11 13:13:08;;;;;;;;;;;;;;;;;;5017155;28;20395;-75
2023/10/11 13:15:38;;;;;;;;;;;;;;;;;;5017219;28;19972;-74
2023/10/11 13:18:09;;;;;;;;;;;;;;;;;;5017084;28;19925;-74
2023/10/11 13:20:36;;;;;;;;;;;;;;;;;;5017598;28;19932;-73
2023/10/11 13:23:06;;;;;;;;;;;;;;;;;;5017430;28;20302;-74
2023/10/11 13:25:33;;;;;;;;;;;;;;;;;;5017452;28;19934;-74
2023/10/11 13:28:03;;;;;;;;;;;;;;;;;;5016800;28;19925;-73
2023/10/11 13:30:36;;;;;;;;;;;;;;;;;;5016630;28;20019;-73
2023/10/11 13:33:05;;;;;;;;;;;;;;;;;;5017453;28;19972;-73
2023/10/11 13:35:35;;;;;;;;;;;;;;;;;;5017112;28;19925;-74
2023/10/11 13:38:04;;;;;;;;;;;;;;;;;;5017381;28;19932;-74
2023/10/11 13:40:32;;;;;;;;;;;;;;;;;;5017398;28;19972;-74
2023/10/11 13:42:59;;;;;;;;;;;;;;;;;;5017283;28;20286;-74
2023/10/11 13:45:27;;;;;;;;;;;;;;;;;;5016449;28;19932;-74
2023/10/11 13:47:54;;;;;;;;;;;;;;;;;;5016170;28;20386;-74
2023/10/11 13:50:21;;;;;;;;;;;;;;;;;;5016299;28;19925;-74
2023/10/11 13:52:51;;;;;;;;;;;;;;;;;;5016476;28;19992;-74
2023/10/11 13:55:18;;;;;;;;;;;;;;;;;;5016331;28;20034;-73
2023/10/11 13:57:52;;;;;;;;;;;;;;;;;;5015888;28;20316;-73
2023/10/11 14:03:30;;;;;;;;;;;;;;;;;;5015723;28;19921;-73
2023/10/11 14:06:01;;;;;;;;;;;;;;;;;;5015770;28;20015;-73
2023/10/11 14:08:39;;;;;;;;;;;;;;;;;;5016208;28;19926;-73
2023/10/11 14:11:05;;;;;;;;;;;;;;;;;;5015983;28;20019;-72
2023/10/11 14:13:32;;;;;;;;;;;;;;;;;;5015963;28;19932;-74
2023/10/11 14:16:04;;;;;;;;;;;;;;;;;;5015953;28;19933;-74
2023/10/11 14:18:32;;;;;;;;;;;;;;;;;;5016735;28;19933;-74
2023/10/11 14:21:01;;;;;;;;;;;;;;;;;;5016141;28;19980;-74
2023/10/11 14:23:28;;;;;;;;;;;;;;;;;;5018025;28;20371;-74
2023/10/11 14:25:55;;;;;;;;;;;;;;;;;;5016397;28;19929;-72
2023/10/11 14:28:22;;;;;;;;;;;;;;;;;;5016032;28;19925;-75
2023/10/11 14:30:50;;;;;;;;;;;;;;;;;;5015414;28;20296;-74
2023/10/11 14:33:18;;;;;;;;;;;;;;;;;;5015807;28;19973;-74
2023/10/11 14:35:46;;;;;;;;;;;;;;;;;;5015846;28;19929;-73
2023/10/11 14:38:14;;;;;;;;;;;;;;;;;;5015542;28;19969;-72
2023/10/11 14:40:42;;;;;;;;;;;;;;;;;;5016643;28;19933;-73
2023/10/11 14:43:11;;;;;;;;;;;;;;;;;;5020251;28;20012;-74
2023/10/11 14:45:38;;;;;;;;;;;;;;;;;;5017480;28;19933;-74
2023/10/11 14:50:54;;;;;;;;;;;;;;;;;;5016637;28;20367;-73
2023/10/11 14:53:21;;;;;;;;;;;;;;;;;;5017468;28;19932;-73
2023/10/11 14:55:53;;;;;;;;;;;;;;;;;;5017845;28;20020;-73
2023/10/11 14:58:20;;;;;;;;;;;;;;;;;;5016392;28;20450;-72
2023/10/11 15:00:47;;;;;;;;;;;;;;;;;;5016146;28;19933;-73
2023/10/11 15:03:14;;;;;;;;;;;;;;;;;;5015549;28;19936;-73
2023/10/11 15:05:48;;;;;;;;;;;;;;;;;;5015752;28;19926;-74
2023/10/11 15:08:16;;;;;;;;;;;;;;;;;;5016366;28;20334;-73
2023/10/11 15:10:42;;;;;;;;;;;;;;;;;;5015934;28;19931;-73
2023/10/11 15:13:11;;;;;;;;;;;;;;;;;;5016470;28;20012;-73
2023/10/11 15:15:38;;;;;;;;;;;;;;;;;;5017256;28;19926;-73
2023/10/11 15:18:05;;;;;;;;;;;;;;;;;;5016074;28;20326;-73
2023/10/11 15:20:32;;;;;;;;;;;;;;;;;;5016176;28;19925;-73
2023/10/11 15:23:00;;;;;;;;;;;;;;;;;;5016045;28;20435;-73
2023/10/11 15:25:27;;;;;;;;;;;;;;;;;;5015797;28;19925;-72
2023/10/11 15:27:55;;;;;;;;;;;;;;;;;;5016159;28;19933;-73
2023/10/11 15:30:22;;;;;;;;;;;;;;;;;;5016251;28;19925;-73
2023/10/11 15:32:49;;;;;;;;;;;;;;;;;;5016321;28;19926;-73
2023/10/11 15:35:16;;;;;;;;;;;;;;;;;;5016862;28;19988;-73
2023/10/11 15:37:46;;;;;;;;;;;;;;;;;;5016375;28;20071;-73
2023/10/11 15:40:14;;;;;;;;;;;;;;;;;;5016699;28;19992;-73
2023/10/11 15:42:41;;;;;;;;;;;;;;;;;;5015625;28;20028;-73
2023/10/11 15:45:08;;;;;;;;;;;;;;;;;;5014539;28;19925;-74
2023/10/11 15:47:36;;;;;;;;;;;;;;;;;;5014995;28;19937;-74
2023/10/11 15:50:04;;;;;;;;;;;;;;;;;;5014678;28;19925;-73
2023/10/11 15:52:30;;;;;;;;;;;;;;;;;;5014455;28;19925;-73
2023/10/11 15:54:58;;;;;;;;;;;;;;;;;;5014944;28;19926;-73
2023/10/11 15:57:25;;;;;;;;;;;;;;;;;;5014926;28;19936;-73
2023/10/11 15:59:52;;;;;;;;;;;;;;;;;;5014847;28;19925;-73
2023/10/11 16:02:19;;;;;;;;;;;;;;;;;;5014427;28;20375;-74
2023/10/11 16:04:46;;;;;;;;;;;;;;;;;;5014775;28;19932;-73
2023/10/11 16:07:16;;;;;;;;;;;;;;;;;;5014502;28;20387;-73
2023/10/11 16:09:42;;;;;;;;;;;;;;;;;;5015372;28;20066;-73
2023/10/11 16:12:12;;;;;;;;;;;;;;;;;;5014224;28;19932;-73
2023/10/11 16:14:40;;;;;;;;;;;;;;;;;;5014141;28;19932;-73
2023/10/11 16:17:08;;;;;;;;;;;;;;;;;;5014112;28;19997;-73
2023/10/11 16:19:36;;;;;;;;;;;;;;;;;;5014177;28;20310;-73
2023/10/11 16:22:03;;;;;;;;;;;;;;;;;;5017855;28;19925;-74
2023/10/11 16:24:30;;;;;;;;;;;;;;;;;;5018510;28;19947;-74
2023/10/11 16:26:57;;;;;;;;;;;;;;;;;;5016923;28;19932;-74
2023/10/11 16:29:24;;;;;;;;;;;;;;;;;;5021487;28;19926;-73
2023/10/11 16:31:51;;;;;;;;;;;;;;;;;;5023955;28;19925;-74
2023/10/11 16:34:18;;;;;;;;;;;;;;;;;;5025612;28;19933;-73
2023/10/11 16:36:45;;;;;;;;;;;;;;;;;;5023905;28;20028;-74
2023/10/11 16:39:16;;;;;;;;;;;;;;;;;;5016983;28;19975;-74
2023/10/11 16:41:43;;;;;;;;;;;;;;;;;;5015760;28;19926;-74
2023/10/11 16:44:13;;;;;;;;;;;;;;;;;;5015081;28;19926;-74
2023/10/11 16:46:40;;;;;;;;;;;;;;;;;;5014642;28;19984;-73
2023/10/11 16:49:10;;;;;;;;;;;;;;;;;;5014286;28;20382;-74
2023/10/11 16:51:37;;;;;;;;;;;;;;;;;;5014851;28;19975;-74
2023/10/11 16:54:06;;;;;;;;;;;;;;;;;;5014454;28;19926;-73
2023/10/11 16:56:33;;;;;;;;;;;;;;;;;;5014414;28;20363;-74
2023/10/11 16:59:00;;;;;;;;;;;;;;;;;;5014602;28;19926;-74
2023/10/11 17:01:27;;;;;;;;;;;;;;;;;;5014036;28;19949;-74
2023/10/11 17:03:54;;;;;;;;;;;;;;;;;;5017488;28;19933;-75
2023/10/11 17:06:23;;;;;;;;;;;;;;;;;;5017881;28;19925;-74
2023/10/11 17:08:50;;;;;;;;;;;;;;;;;;5017552;28;19929;-74
2023/10/11 17:11:17;;;;;;;;;;;;;;;;;;5017718;28;19926;-74
2023/10/11 17:13:44;;;;;;;;;;;;;;;;;;5017619;28;19933;-75
2023/10/11 17:16:13;;;;;;;;;;;;;;;;;;5020496;28;19925;-74
2023/10/11 17:18:39;;;;;;;;;;;;;;;;;;5029263;28;20410;-74
2023/10/11 17:21:06;;;;;;;;;;;;;;;;;;5025473;28;19932;-74
2023/10/11 17:23:33;;;;;;;;;;;;;;;;;;5026000;28;19926;-75
2023/10/11 17:26:00;;;;;;;;;;;;;;;;;;5019208;28;19932;-76
2023/10/11 17:28:27;;;;;;;;;;;;;;;;;;5017727;28;19933;-74
2023/10/11 17:30:54;;;;;;;;;;;;;;;;;;5018064;28;19932;-76
2023/10/11 17:33:21;;;;;;;;;;;;;;;;;;5017775;28;19932;-74
2023/10/11 17:35:48;;;;;;;;;;;;;;;;;;5017728;28;19932;-73
2023/10/11 17:38:15;;;;;;;;;;;;;;;;;;5017666;28;19933;-73
2023/10/11 17:40:45;;;;;;;;;;;;;;;;;;5017446;28;19936;-74
2023/10/11 17:43:12;;;;;;;;;;;;;;;;;;5017810;28;19955;-75
2023/10/11 17:45:40;;;;;;;;;;;;;;;;;;5017986;28;19933;-74
2023/10/11 17:48:07;;;;;;;;;;;;;;;;;;5017716;28;19932;-74
2023/10/11 17:50:34;;;;;;;;;;;;;;;;;;5017203;28;20391;-75
2023/10/11 17:53:04;;;;;;;;;;;;;;;;;;5017340;28;19926;-75
2023/10/11 17:55:31;;;;;;;;;;;;;;;;;;5017290;28;19929;-74
2023/10/11 17:57:58;;;;;;;;;;;;;;;;;;5017595;28;19925;-75
2023/10/11 18:00:27;;;;;;;;;;;;;;;;;;5017052;28;19926;-74
2023/10/11 18:02:54;;;;;;;;;;;;;;;;;;5016802;28;20390;-74
2023/10/11 18:05:21;;;;;;;;;;;;;;;;;;5017216;28;19926;-73
2023/10/11 18:07:49;;;;;;;;;;;;;;;;;;5016845;28;19925;-74
2023/10/11 18:10:16;;;;;;;;;;;;;;;;;;5016705;28;19973;-74
2023/10/11 18:12:44;;;;;;;;;;;;;;;;;;5017073;28;20375;-76
2023/10/11 18:15:11;;;;;;;;;;;;;;;;;;5016771;28;19926;-74
2023/10/11 18:17:40;;;;;;;;;;;;;;;;;;5017102;28;19932;-75
2023/10/11 18:20:07;;;;;;;;;;;;;;;;;;5016795;28;19976;-76
2023/10/11 18:22:34;;;;;;;;;;;;;;;;;;5016760;28;20030;-74
2023/10/11 18:25:01;;;;;;;;;;;;;;;;;;5016543;28;19932;-74
2023/10/11 18:27:28;;;;;;;;;;;;;;;;;;5016768;28;19926;-74
2023/10/11 18:29:55;;;;;;;;;;;;;;;;;;5016817;28;19932;-73
2023/10/11 18:32:22;;;;;;;;;;;;;;;;;;5016528;28;19925;-75
2023/10/11 18:34:49;;;;;;;;;;;;;;;;;;5016602;28;19926;-73
2023/10/11 18:37:16;;;;;;;;;;;;;;;;;;5016511;28;19926;-73
2023/10/11 18:39:44;;;;;;;;;;;;;;;;;;5016877;28;19925;-75
2023/10/11 18:42:12;;;;;;;;;;;;;;;;;;5016669;28;19925;-73
2023/10/11 18:44:39;;;;;;;;;;;;;;;;;;5016612;28;19925;-75
2023/10/11 18:47:06;;;;;;;;;;;;;;;;;;5016782;28;19955;-74
2023/10/11 18:49:33;;;;;;;;;;;;;;;;;;5016243;28;19975;-74
2023/10/11 18:52:00;;;;;;;;;;;;;;;;;;5015995;28;19932;-74
2023/10/11 18:54:27;;;;;;;;;;;;;;;;;;5016360;28;19925;-74
2023/10/11 18:56:54;;;;;;;;;;;;;;;;;;5015985;28;19933;-75
2023/10/11 18:59:21;;;;;;;;;;;;;;;;;;5016469;28;19941;-74
2023/10/11 19:01:48;;;;;;;;;;;;;;;;;;5016037;28;19926;-74
2023/10/11 19:04:15;;;;;;;;;;;;;;;;;;5016292;28;19925;-75
2023/10/11 19:06:43;;;;;;;;;;;;;;;;;;5016703;28;19929;-75
2023/10/11 19:09:12;;;;;;;;;;;;;;;;;;5015464;28;20465;-75
2023/10/11 19:11:40;;;;;;;;;;;;;;;;;;5016801;28;19925;-75
2023/10/11 19:14:08;;;;;;;;;;;;;;;;;;5016999;28;20346;-74
2023/10/11 19:16:35;;;;;;;;;;;;;;;;;;5016640;28;19925;-74
2023/10/11 19:19:02;;;;;;;;;;;;;;;;;;5015946;28;20001;-75
2023/10/11 19:21:29;;;;;;;;;;;;;;;;;;5016390;28;19933;-76
2023/10/11 19:23:56;;;;;;;;;;;;;;;;;;5016177;28;20379;-77
2023/10/11 19:26:23;;;;;;;;;;;;;;;;;;5015875;28;19926;-76
2023/10/11 19:28:50;;;;;;;;;;;;;;;;;;5016061;28;19926;-75
2023/10/11 19:31:18;;;;;;;;;;;;;;;;;;5015506;28;20378;-75
2023/10/11 19:33:45;;;;;;;;;;;;;;;;;;5015598;28;19932;-75
2023/10/11 19:36:12;;;;;;;;;;;;;;;;;;5015009;28;20409;-75
2023/10/11 19:38:39;;;;;;;;;;;;;;;;;;5025889;23;19932;-73
2023/10/11 19:41:07;;;;;;;;;;;;;;;;;;4995419;28;20404;-73
2023/10/11 19:43:35;;;;;;;;;;;;;;;;;;4995262;28;19926;-73
2023/10/11 19:46:03;;;;;;;;;;;;;;;;;;4995120;28;19980;-73
2023/10/11 19:48:30;;;;;;;;;;;;;;;;;;4995030;28;19973;-73
2023/10/11 19:50:57;;;;;;;;;;;;;;;;;;4995034;28;20371;-75
2023/10/11 19:53:24;;;;;;;;;;;;;;;;;;4995199;28;19925;-74
2023/10/11 19:55:51;;;;;;;;;;;;;;;;;;4995320;28;20020;-74
2023/10/11 19:58:18;;;;;;;;;;;;;;;;;;4995334;28;19926;-74
2023/10/11 20:00:44;;;;;;;;;;;;;;;;;;4994937;28;19929;-76
2023/10/11 20:03:12;;;;;;;;;;;;;;;;;;4994912;28;19926;-74
2023/10/11 20:05:39;;;;;;;;;;;;;;;;;;4994515;28;20327;-73
2023/10/11 20:08:09;;;;;;;;;;;;;;;;;;4994677;28;20387;-75
2023/10/11 20:10:36;;;;;;;;;;;;;;;;;;4994685;28;20024;-73
2023/10/11 20:13:03;;;;;;;;;;;;;;;;;;4994576;28;19957;-74
2023/10/11 20:15:30;;;;;;;;;;;;;;;;;;4994545;28;19925;-72
2023/10/11 20:17:57;;;;;;;;;;;;;;;;;;4994354;28;19926;-72
2023/10/11 20:20:24;;;;;;;;;;;;;;;;;;4994567;28;20021;-73
2023/10/11 20:22:52;;;;;;;;;;;;;;;;;;4994485;28;19949;-72
2023/10/11 20:25:19;;;;;;;;;;;;;;;;;;4994457;28;19933;-72
2023/10/11 20:27:47;;;;;;;;;;;;;;;;;;4994501;28;19925;-72
2023/10/11 20:30:16;;;;;;;;;;;;;;;;;;4994661;28;19968;-73
2023/10/11 20:32:43;;;;;;;;;;;;;;;;;;4994724;28;19929;-72
2023/10/11 20:35:12;;;;;;;;;;;;;;;;;;4994678;28;19926;-72
2023/10/11 20:37:39;;;;;;;;;;;;;;;;;;4994734;28;19933;-73
2023/10/11 20:40:13;;;;;;;;;;;;;;;;;;4997989;28;20407;-73
2023/10/11 20:42:41;;;;;;;;;;;;;;;;;;4998338;28;20298;-72
2023/10/11 20:45:08;;;;;;;;;;;;;;;;;;4998252;28;19926;-72
2023/10/11 20:47:35;;;;;;;;;;;;;;;;;;4997972;28;20033;-72
2023/10/11 20:50:02;;;;;;;;;;;;;;;;;;4998357;28;19926;-72
2023/10/11 20:52:29;;;;;;;;;;;;;;;;;;4998063;28;20298;-72
2023/10/11 20:54:56;;;;;;;;;;;;;;;;;;4998447;28;19925;-72
2023/10/11 20:57:23;;;;;;;;;;;;;;;;;;4998079;28;19933;-72
2023/10/11 20:59:51;;;;;;;;;;;;;;;;;;4998281;28;19926;-72
2023/10/11 21:02:18;;;;;;;;;;;;;;;;;;4998254;28;20033;-74
2023/10/11 21:04:47;;;;;;;;;;;;;;;;;;4998242;28;19936;-74
2023/10/11 21:07:17;;;;;;;;;;;;;;;;;;4997938;28;20370;-74
2023/10/11 21:09:44;;;;;;;;;;;;;;;;;;4997961;28;20339;-73
2023/10/11 21:12:12;;;;;;;;;;;;;;;;;;4997825;28;19926;-73
2023/10/11 21:14:39;;;;;;;;;;;;;;;;;;4998065;28;19929;-74
2023/10/11 21:17:08;;;;;;;;;;;;;;;;;;4997774;28;19965;-73
2023/10/11 21:19:35;;;;;;;;;;;;;;;;;;4997532;28;19937;-73